Time;durP1;ratioP1;P1;durP2;ratioP2;P2;SDS_P1;SDS_P2;PMS_P1;PMS_P2;Temp;Humidity;BMP_temperature;BMP_pressure;BME280_temperature;BME280_humidity;BME280_pressure;Samples;Min_cycle;Max_cycle;Signal;HPM_P1;HPM_P2
2023/08/26 00:00:18;;;;;;;6.93;4.33;;;;;;;;;;5089352;28;20024;-72
2023/08/26 00:02:44;;;;;;;7.32;4.63;;;;;;;;;;5088811;28;20281;-73
2023/08/26 00:05:09;;;;;;;6.17;4.03;;;;;;;;;;5077793;28;20423;-72
2023/08/26 00:07:34;;;;;;;5.25;3.63;;;;;;;;;;5076585;28;20365;-72
2023/08/26 00:10:02;;;;;;;5.93;3.57;;;;;;;;;;5076049;28;20045;-71
2023/08/26 00:12:27;;;;;;;7.28;3.47;;;;;;;;;;5077874;28;20759;-71
2023/08/26 00:14:53;;;;;;;5.65;3.28;;;;;;;;;;5083742;28;20026;-71
2023/08/26 00:17:18;;;;;;;7.22;3.30;;;;;;;;;;5072392;28;20054;-73
2023/08/26 00:19:44;;;;;;;8.05;2.92;;;;;;;;;;5080538;28;20021;-73
2023/08/26 00:22:10;;;;;;;4.57;2.15;;;;;;;;;;5073139;28;20094;-73
2023/08/26 00:24:36;;;;;;;6.65;2.53;;;;;;;;;;5072725;28;20025;-73
2023/08/26 00:27:01;;;;;;;5.43;2.78;;;;;;;;;;5081001;28;20028;-73
2023/08/26 00:29:26;;;;;;;7.10;2.17;;;;;;;;;;5089736;28;20027;-74
2023/08/26 00:31:52;;;;;;;4.20;1.98;;;;;;;;;;5086389;28;20029;-73
2023/08/26 00:34:17;;;;;;;7.10;2.30;;;;;;;;;;5088906;28;20031;-73
2023/08/26 00:36:42;;;;;;;3.85;2.20;;;;;;;;;;5091297;28;20357;-73
2023/08/26 00:39:07;;;;;;;4.60;2.80;;;;;;;;;;5090485;28;20039;-73
2023/08/26 00:41:33;;;;;;;5.35;2.53;;;;;;;;;;5085883;28;20032;-73
2023/08/26 00:43:58;;;;;;;9.38;2.80;;;;;;;;;;5086730;28;20389;-73
2023/08/26 00:46:25;;;;;;;6.93;2.53;;;;;;;;;;5087094;28;20028;-73
2023/08/26 00:48:50;;;;;;;3.78;2.40;;;;;;;;;;5089546;28;20024;-73
2023/08/26 00:51:17;;;;;;;4.40;2.60;;;;;;;;;;5087824;28;20016;-74
2023/08/26 00:53:42;;;;;;;5.43;2.47;;;;;;;;;;5089011;28;20027;-73
2023/08/26 00:56:07;;;;;;;3.75;2.38;;;;;;;;;;5086911;28;20021;-73
2023/08/26 00:58:33;;;;;;;4.65;2.63;;;;;;;;;;5089706;28;20451;-73
2023/08/26 01:00:59;;;;;;;6.43;3.17;;;;;;;;;;5085514;28;20020;-74
2023/08/26 01:03:24;;;;;;;3.92;2.53;;;;;;;;;;5091228;28;20077;-73
2023/08/26 01:05:49;;;;;;;4.80;2.67;;;;;;;;;;5087141;28;20501;-74
2023/08/26 01:08:15;;;;;;;6.28;3.05;;;;;;;;;;5088263;28;20028;-73
2023/08/26 01:10:55;;;;;;;6.45;2.78;;;;;;;;;;5078190;28;20024;-72
2023/08/26 01:13:24;;;;;;;7.10;2.90;;;;;;;;;;5071348;28;20071;-73
2023/08/26 01:15:50;;;;;;;4.53;2.75;;;;;;;;;;5069398;28;20044;-72
2023/08/26 01:18:15;;;;;;;4.85;2.63;;;;;;;;;;5079292;28;20126;-72
2023/08/26 01:20:42;;;;;;;4.35;2.92;;;;;;;;;;5079544;28;20025;-72
2023/08/26 01:23:10;;;;;;;6.65;3.03;;;;;;;;;;5086582;28;20020;-72
2023/08/26 01:25:36;;;;;;;5.28;3.05;;;;;;;;;;5081445;28;20098;-72
2023/08/26 01:28:01;;;;;;;8.85;3.47;;;;;;;;;;5074767;28;20123;-72
2023/08/26 01:30:27;;;;;;;6.32;3.47;;;;;;;;;;5089137;28;20020;-72
2023/08/26 01:33:04;;;;;;;7.93;3.22;;;;;;;;;;5090506;28;20035;-72
2023/08/26 01:35:40;;;;;;;6.22;3.58;;;;;;;;;;5079491;28;20695;-72
2023/08/26 01:38:07;;;;;;;5.93;3.30;;;;;;;;;;5074312;28;20159;-74
2023/08/26 01:40:33;;;;;;;7.15;3.40;;;;;;;;;;5093695;28;20012;-73
2023/08/26 01:42:58;;;;;;;6.15;3.20;;;;;;;;;;5093685;28;20028;-70
2023/08/26 01:45:24;;;;;;;9.15;3.30;;;;;;;;;;5078748;28;20028;-70
2023/08/26 01:47:49;;;;;;;7.30;3.75;;;;;;;;;;5074355;28;20025;-70
2023/08/26 01:50:14;;;;;;;6.13;3.13;;;;;;;;;;5076268;28;20395;-70
2023/08/26 01:52:41;;;;;;;10.83;3.53;;;;;;;;;;5090318;28;20119;-71
2023/08/26 01:55:06;;;;;;;8.25;4.10;;;;;;;;;;5093873;28;20278;-70
2023/08/26 01:57:32;;;;;;;7.28;3.80;;;;;;;;;;5094377;28;20024;-70
2023/08/26 01:59:57;;;;;;;9.30;3.90;;;;;;;;;;5093431;28;20440;-71
2023/08/26 02:02:22;;;;;;;10.13;3.90;;;;;;;;;;5093459;28;20031;-72
2023/08/26 02:04:47;;;;;;;9.37;4.57;;;;;;;;;;5084274;28;20428;-71
2023/08/26 02:07:13;;;;;;;12.20;4.63;;;;;;;;;;5084392;28;20278;-71
2023/08/26 02:09:38;;;;;;;6.00;3.30;;;;;;;;;;5084329;28;20342;-71
2023/08/26 02:12:03;;;;;;;8.02;3.83;;;;;;;;;;5073670;28;20425;-71
2023/08/26 02:14:29;;;;;;;7.20;3.60;;;;;;;;;;5075465;28;20024;-71
2023/08/26 02:16:54;;;;;;;8.03;4.03;;;;;;;;;;5081965;28;20031;-71
2023/08/26 02:19:19;;;;;;;6.90;3.37;;;;;;;;;;5074320;28;20275;-71
2023/08/26 02:21:44;;;;;;;8.67;3.73;;;;;;;;;;5086599;28;20278;-71
2023/08/26 02:24:09;;;;;;;7.50;3.90;;;;;;;;;;5073793;28;20362;-71
2023/08/26 02:26:36;;;;;;;5.90;3.30;;;;;;;;;;5080441;28;20039;-72
2023/08/26 02:29:01;;;;;;;9.52;4.50;;;;;;;;;;5093052;28;20266;-72
2023/08/26 02:31:26;;;;;;;7.80;3.90;;;;;;;;;;5073839;28;20056;-71
2023/08/26 02:33:51;;;;;;;9.67;4.70;;;;;;;;;;5081530;28;20289;-71
2023/08/26 02:36:17;;;;;;;14.15;4.68;;;;;;;;;;5076896;28;20284;-71
2023/08/26 02:38:42;;;;;;;8.87;4.33;;;;;;;;;;5073076;28;20040;-71
2023/08/26 02:41:07;;;;;;;7.53;4.80;;;;;;;;;;5080095;28;20278;-71
2023/08/26 02:43:32;;;;;;;10.87;5.00;;;;;;;;;;5078124;28;20027;-72
2023/08/26 02:45:58;;;;;;;9.40;4.72;;;;;;;;;;5085013;28;20302;-71
2023/08/26 02:48:24;;;;;;;8.52;4.45;;;;;;;;;;5073285;28;20029;-72
2023/08/26 02:50:59;;;;;;;10.02;4.50;;;;;;;;;;5073474;28;20028;-72
2023/08/26 02:53:25;;;;;;;7.72;3.95;;;;;;;;;;5073537;28;20081;-72
2023/08/26 02:55:51;;;;;;;7.90;3.88;;;;;;;;;;5073745;28;20411;-72
2023/08/26 02:58:16;;;;;;;9.38;4.18;;;;;;;;;;5073189;28;20028;-71
2023/08/26 03:00:41;;;;;;;6.20;3.88;;;;;;;;;;5074564;28;20463;-71
2023/08/26 03:03:07;;;;;;;7.43;3.50;;;;;;;;;;5089705;28;20119;-70
2023/08/26 03:05:33;;;;;;;7.78;3.53;;;;;;;;;;5072900;28;20281;-71
2023/08/26 03:07:59;;;;;;;7.80;3.42;;;;;;;;;;5087341;28;20024;-71
2023/08/26 03:10:24;;;;;;;17.38;3.67;;;;;;;;;;5081355;28;20049;-71
2023/08/26 03:12:49;;;;;;;9.90;3.55;;;;;;;;;;5076797;28;20125;-71
2023/08/26 03:15:15;;;;;;;6.25;3.22;;;;;;;;;;5092512;28;20036;-72
2023/08/26 03:17:40;;;;;;;7.15;3.10;;;;;;;;;;5073219;28;20027;-72
2023/08/26 03:20:05;;;;;;;10.67;3.50;;;;;;;;;;5079269;28;20467;-72
2023/08/26 03:22:30;;;;;;;5.97;3.05;;;;;;;;;;5079434;28;20267;-72
2023/08/26 03:24:56;;;;;;;7.18;3.22;;;;;;;;;;5079301;28;20032;-72
2023/08/26 03:27:21;;;;;;;6.28;3.10;;;;;;;;;;5092518;28;20383;-72
2023/08/26 03:29:46;;;;;;;6.32;3.00;;;;;;;;;;5091978;28;20055;-72
2023/08/26 03:32:11;;;;;;;6.13;2.95;;;;;;;;;;5091065;28;20053;-74
2023/08/26 03:34:37;;;;;;;5.70;2.93;;;;;;;;;;5090825;28;20020;-73
2023/08/26 03:37:03;;;;;;;6.45;3.13;;;;;;;;;;5091668;28;20368;-73
2023/08/26 03:39:28;;;;;;;7.32;2.85;;;;;;;;;;5090186;28;20031;-73
2023/08/26 03:41:53;;;;;;;6.28;3.13;;;;;;;;;;5091418;28;20028;-72
2023/08/26 03:44:18;;;;;;;5.25;2.83;;;;;;;;;;5089768;28;20141;-72
2023/08/26 03:46:44;;;;;;;5.93;2.30;;;;;;;;;;5090804;28;20026;-72
2023/08/26 03:49:09;;;;;;;4.50;2.53;;;;;;;;;;5089670;28;20266;-73
2023/08/26 03:51:34;;;;;;;6.00;2.60;;;;;;;;;;5087529;28;20492;-73
2023/08/26 03:54:00;;;;;;;5.15;2.78;;;;;;;;;;5086209;28;20347;-71
2023/08/26 03:56:25;;;;;;;4.55;2.22;;;;;;;;;;5079628;28;20103;-71
2023/08/26 03:58:56;;;;;;;7.50;2.83;;;;;;;;;;5081069;28;20039;-72
2023/08/26 04:01:21;;;;;;;5.55;2.50;;;;;;;;;;5082371;28;20648;-72
2023/08/26 04:03:49;;;;;;;4.43;2.38;;;;;;;;;;5086469;28;20024;-72
2023/08/26 04:06:15;;;;;;;3.97;2.22;;;;;;;;;;5089078;28;20052;-73
2023/08/26 04:08:41;;;;;;;8.65;2.33;;;;;;;;;;5076562;28;20054;-73
2023/08/26 04:11:06;;;;;;;4.60;2.40;;;;;;;;;;5074375;28;20020;-73
2023/08/26 04:13:31;;;;;;;7.05;2.15;;;;;;;;;;5071982;28;20024;-73
2023/08/26 04:15:56;;;;;;;4.00;2.03;;;;;;;;;;5089678;28;20062;-73
2023/08/26 04:18:22;;;;;;;4.38;2.30;;;;;;;;;;5086012;28;20614;-73
2023/08/26 04:20:47;;;;;;;5.22;1.70;;;;;;;;;;5072095;28;20044;-73
2023/08/26 04:23:13;;;;;;;4.63;1.85;;;;;;;;;;5090973;28;20023;-74
2023/08/26 04:25:39;;;;;;;3.40;1.73;;;;;;;;;;5091088;28;20097;-73
2023/08/26 04:28:04;;;;;;;4.90;1.73;;;;;;;;;;5089569;28;20027;-73
2023/08/26 04:30:29;;;;;;;4.40;1.65;;;;;;;;;;5090922;28;20027;-74
2023/08/26 04:32:54;;;;;;;7.05;2.22;;;;;;;;;;5076234;28;20036;-74
2023/08/26 04:35:20;;;;;;;3.38;1.65;;;;;;;;;;5082518;28;20161;-71
2023/08/26 04:37:46;;;;;;;3.65;1.55;;;;;;;;;;5081997;28;20499;-71
2023/08/26 04:40:14;;;;;;;5.90;2.00;;;;;;;;;;5082898;28;20039;-71
2023/08/26 04:42:39;;;;;;;5.90;1.33;;;;;;;;;;5072723;28;20017;-71
2023/08/26 04:45:05;;;;;;;3.75;1.58;;;;;;;;;;5085414;28;20028;-71
2023/08/26 04:47:30;;;;;;;3.83;1.50;;;;;;;;;;5074541;28;20103;-73
2023/08/26 04:49:55;;;;;;;6.37;1.60;;;;;;;;;;5077256;28;20051;-72
2023/08/26 04:52:21;;;;;;;3.65;1.40;;;;;;;;;;5072266;28;20802;-72
2023/08/26 04:54:46;;;;;;;3.83;1.67;;;;;;;;;;5071756;28;20046;-72
2023/08/26 04:57:12;;;;;;;9.63;1.70;;;;;;;;;;5072560;28;20770;-72
2023/08/26 04:59:37;;;;;;;3.50;1.50;;;;;;;;;;5071658;28;20638;-72
2023/08/26 05:02:04;;;;;;;3.17;1.45;;;;;;;;;;5073608;28;20029;-72
2023/08/26 05:04:29;;;;;;;4.35;1.70;;;;;;;;;;5078566;28;20017;-72
2023/08/26 05:06:54;;;;;;;3.72;1.52;;;;;;;;;;5059358;28;20036;-72
2023/08/26 05:09:20;;;;;;;5.18;1.52;;;;;;;;;;5078723;28;20016;-72
2023/08/26 05:11:45;;;;;;;5.22;1.55;;;;;;;;;;5090983;28;20036;-72
2023/08/26 05:14:11;;;;;;;3.40;1.70;;;;;;;;;;5089036;28;20111;-72
2023/08/26 05:16:36;;;;;;;4.32;1.70;;;;;;;;;;5091101;28;20282;-72
2023/08/26 05:19:01;;;;;;;5.27;1.10;;;;;;;;;;5079387;28;20021;-72
2023/08/26 05:21:26;;;;;;;3.53;1.60;;;;;;;;;;5058029;28;20272;-73
2023/08/26 05:23:52;;;;;;;3.67;1.83;;;;;;;;;;5044612;28;20016;-72
2023/08/26 05:26:17;;;;;;;4.38;1.67;;;;;;;;;;5033846;28;21176;-72
2023/08/26 05:28:42;;;;;;;3.65;1.80;;;;;;;;;;5065800;28;20032;-72
2023/08/26 05:31:07;;;;;;;7.45;1.88;;;;;;;;;;5076424;28;20103;-72
2023/08/26 05:33:33;;;;;;;4.30;1.60;;;;;;;;;;5077497;28;20051;-72
2023/08/26 05:35:58;;;;;;;4.22;2.10;;;;;;;;;;5076395;28;20029;-70
2023/08/26 05:38:23;;;;;;;3.75;1.60;;;;;;;;;;5041502;28;20024;-72
2023/08/26 05:40:48;;;;;;;4.82;1.75;;;;;;;;;;5032961;28;20089;-71
2023/08/26 05:43:14;;;;;;;3.75;1.80;;;;;;;;;;5044600;28;20100;-71
2023/08/26 05:45:39;;;;;;;2.47;1.30;;;;;;;;;;5048063;28;21027;-72
2023/08/26 05:48:04;;;;;;;4.63;1.92;;;;;;;;;;5042526;28;20048;-72
2023/08/26 05:50:30;;;;;;;2.78;1.38;;;;;;;;;;5040069;28;20083;-72
2023/08/26 05:52:55;;;;;;;3.65;1.10;;;;;;;;;;5024060;28;20036;-71
2023/08/26 05:55:20;;;;;;;4.40;1.33;;;;;;;;;;5043180;28;20034;-72
2023/08/26 05:57:46;;;;;;;4.72;1.30;;;;;;;;;;5033057;28;20266;-71
2023/08/26 06:00:12;;;;;;;4.43;1.55;;;;;;;;;;5043434;28;20132;-72
2023/08/26 06:02:37;;;;;;;3.53;1.40;;;;;;;;;;5019252;28;20044;-72
2023/08/26 06:05:02;;;;;;;5.60;1.08;;;;;;;;;;5036558;28;20032;-71
2023/08/26 06:07:31;;;;;;;4.35;1.23;;;;;;;;;;5025552;28;20032;-72
2023/08/26 06:09:56;;;;;;;2.53;1.00;;;;;;;;;;5029859;28;20554;-72
2023/08/26 06:12:21;;;;;;;2.70;1.10;;;;;;;;;;5045204;28;20067;-72
2023/08/26 06:14:46;;;;;;;4.40;1.30;;;;;;;;;;5045181;28;20028;-71
2023/08/26 06:17:12;;;;;;;2.47;1.08;;;;;;;;;;5043300;28;20020;-71
2023/08/26 06:19:37;;;;;;;3.40;0.93;;;;;;;;;;5042469;28;20035;-71
2023/08/26 06:22:02;;;;;;;5.05;1.35;;;;;;;;;;5044082;28;20517;-71
2023/08/26 06:24:28;;;;;;;3.67;1.60;;;;;;;;;;5079236;28;20020;-71
2023/08/26 06:26:53;;;;;;;4.50;1.70;;;;;;;;;;5078589;28;20028;-71
2023/08/26 06:29:19;;;;;;;4.03;1.17;;;;;;;;;;5091774;28;20023;-71
2023/08/26 06:31:44;;;;;;;2.92;1.13;;;;;;;;;;5077832;28;20290;-71
2023/08/26 06:34:09;;;;;;;4.18;1.23;;;;;;;;;;5079134;28;20126;-72
2023/08/26 06:36:35;;;;;;;3.07;1.10;;;;;;;;;;5092486;28;20097;-71
2023/08/26 06:39:00;;;;;;;1.80;0.77;;;;;;;;;;5083504;28;20367;-72
2023/08/26 06:41:25;;;;;;;5.05;1.55;;;;;;;;;;5084477;28;20112;-71
2023/08/26 06:43:50;;;;;;;2.88;1.10;;;;;;;;;;5077924;28;20044;-71
2023/08/26 06:46:16;;;;;;;3.42;1.23;;;;;;;;;;5080451;28;20454;-70
2023/08/26 06:48:41;;;;;;;3.33;1.33;;;;;;;;;;5077013;28;20028;-71
2023/08/26 06:51:07;;;;;;;3.30;1.50;;;;;;;;;;5080443;28;20027;-71
2023/08/26 06:53:32;;;;;;;2.90;0.95;;;;;;;;;;5077909;28;20033;-71
2023/08/26 06:55:57;;;;;;;3.38;1.30;;;;;;;;;;5080509;28;20387;-70
2023/08/26 06:58:23;;;;;;;3.58;1.38;;;;;;;;;;5069157;28;20056;-70
2023/08/26 07:00:48;;;;;;;3.60;1.50;;;;;;;;;;5079801;28;20502;-70
2023/08/26 07:03:14;;;;;;;5.40;1.92;;;;;;;;;;5073462;28;20380;-71
2023/08/26 07:05:43;;;;;;;3.45;1.25;;;;;;;;;;5079108;28;20027;-72
2023/08/26 07:08:08;;;;;;;2.97;1.40;;;;;;;;;;5078434;28;20094;-71
2023/08/26 07:10:33;;;;;;;3.97;1.27;;;;;;;;;;5076030;28;20048;-70
2023/08/26 07:12:59;;;;;;;3.53;1.10;;;;;;;;;;5090420;28;20294;-70
2023/08/26 07:15:24;;;;;;;5.38;1.42;;;;;;;;;;5087362;28;20029;-71
2023/08/26 07:17:49;;;;;;;6.30;1.25;;;;;;;;;;5086512;28;20085;-71
2023/08/26 07:20:15;;;;;;;5.15;1.73;;;;;;;;;;5073009;28;20433;-71
2023/08/26 07:22:40;;;;;;;2.77;0.87;;;;;;;;;;5073720;28;20099;-70
2023/08/26 07:25:05;;;;;;;3.40;1.33;;;;;;;;;;5092073;28;20270;-70
2023/08/26 07:27:31;;;;;;;2.13;0.80;;;;;;;;;;5087282;28;20020;-70
2023/08/26 07:29:56;;;;;;;2.27;0.87;;;;;;;;;;5086780;28;20016;-70
2023/08/26 07:32:21;;;;;;;2.03;0.90;;;;;;;;;;5075690;28;20282;-70
2023/08/26 07:34:46;;;;;;;6.50;1.13;;;;;;;;;;5037855;28;20302;-70
2023/08/26 07:37:12;;;;;;;3.05;1.05;;;;;;;;;;5031184;28;20970;-69
2023/08/26 07:39:37;;;;;;;2.53;1.17;;;;;;;;;;5032382;28;20131;-70
2023/08/26 07:42:03;;;;;;;2.40;0.93;;;;;;;;;;5067862;28;20061;-70
2023/08/26 07:44:28;;;;;;;2.10;1.10;;;;;;;;;;5072243;28;20051;-70
2023/08/26 07:46:53;;;;;;;2.60;0.90;;;;;;;;;;5075886;28;20016;-71
2023/08/26 07:49:19;;;;;;;2.13;0.93;;;;;;;;;;5035149;28;21108;-70
2023/08/26 07:51:44;;;;;;;3.83;1.08;;;;;;;;;;5034172;28;20043;-71
2023/08/26 07:54:10;;;;;;;4.40;1.00;;;;;;;;;;5038060;28;20904;-70
2023/08/26 07:56:35;;;;;;;4.10;1.23;;;;;;;;;;5041186;28;20885;-70
2023/08/26 07:59:00;;;;;;;3.33;1.15;;;;;;;;;;5034192;28;20052;-72
2023/08/26 08:01:25;;;;;;;3.77;1.17;;;;;;;;;;5029383;28;20128;-70
2023/08/26 08:03:51;;;;;;;2.45;1.10;;;;;;;;;;5030933;28;20278;-70
2023/08/26 08:06:16;;;;;;;3.63;1.23;;;;;;;;;;5036598;28;20411;-71
2023/08/26 08:08:41;;;;;;;6.90;1.13;;;;;;;;;;5063391;28;20077;-70
2023/08/26 08:11:06;;;;;;;3.92;1.30;;;;;;;;;;5029708;28;20059;-69
2023/08/26 08:13:32;;;;;;;2.03;0.67;;;;;;;;;;5037064;28;20887;-70
2023/08/26 08:15:57;;;;;;;2.35;1.00;;;;;;;;;;5033749;28;21067;-69
2023/08/26 08:18:22;;;;;;;4.60;1.10;;;;;;;;;;5035662;28;20028;-71
2023/08/26 08:20:47;;;;;;;2.78;1.20;;;;;;;;;;5033989;28;20099;-70
2023/08/26 08:23:13;;;;;;;2.78;0.90;;;;;;;;;;5089828;28;20024;-68
2023/08/26 08:25:39;;;;;;;5.18;1.30;;;;;;;;;;5090638;28;20467;-70
2023/08/26 08:28:04;;;;;;;2.13;0.90;;;;;;;;;;5091305;28;20111;-70
2023/08/26 08:30:29;;;;;;;3.22;0.90;;;;;;;;;;5090563;28;20479;-70
2023/08/26 08:32:55;;;;;;;2.08;0.93;;;;;;;;;;5091190;28;20039;-69
2023/08/26 08:35:20;;;;;;;2.65;0.93;;;;;;;;;;5090208;28;20421;-69
2023/08/26 08:37:45;;;;;;;4.37;1.30;;;;;;;;;;5083775;28;20029;-69
2023/08/26 08:40:11;;;;;;;3.03;1.20;;;;;;;;;;5090319;28;20266;-70
2023/08/26 08:42:36;;;;;;;2.75;1.00;;;;;;;;;;5090768;28;20274;-70
2023/08/26 08:45:05;;;;;;;3.58;1.17;;;;;;;;;;5076715;28;20077;-69
2023/08/26 08:47:31;;;;;;;2.13;0.80;;;;;;;;;;5089734;28;20023;-68
2023/08/26 08:49:57;;;;;;;2.25;0.60;;;;;;;;;;5078838;28;20036;-69
2023/08/26 08:52:22;;;;;;;2.42;0.77;;;;;;;;;;5084122;28;20052;-70
2023/08/26 08:54:47;;;;;;;2.90;0.68;;;;;;;;;;5077636;28;20106;-70
2023/08/26 08:57:15;;;;;;;7.55;1.00;;;;;;;;;;5083372;28;20021;-70
2023/08/26 08:59:40;;;;;;;2.78;1.00;;;;;;;;;;5078667;28;20423;-69
2023/08/26 09:02:06;;;;;;;3.80;1.00;;;;;;;;;;5078873;28;20039;-70
2023/08/26 09:04:31;;;;;;;3.70;0.80;;;;;;;;;;5077540;28;20120;-69
2023/08/26 09:06:57;;;;;;;2.17;0.77;;;;;;;;;;5083995;28;20028;-69
2023/08/26 09:09:22;;;;;;;2.13;1.02;;;;;;;;;;5083136;28;20024;-69
2023/08/26 09:11:48;;;;;;;2.28;0.90;;;;;;;;;;5086874;28;20024;-69
2023/08/26 09:14:13;;;;;;;3.47;1.10;;;;;;;;;;5088397;28;20055;-68
2023/08/26 09:16:39;;;;;;;1.63;0.65;;;;;;;;;;5076236;28;20055;-69
2023/08/26 09:19:05;;;;;;;1.83;0.80;;;;;;;;;;5075703;28;20549;-69
2023/08/26 09:21:30;;;;;;;1.25;0.60;;;;;;;;;;5077115;28;20031;-69
2023/08/26 09:23:56;;;;;;;2.08;0.68;;;;;;;;;;5076382;28;20438;-69
2023/08/26 09:26:22;;;;;;;3.03;0.93;;;;;;;;;;5071148;28;20544;-70
2023/08/26 09:28:50;;;;;;;1.73;0.60;;;;;;;;;;5071672;28;20025;-69
2023/08/26 09:31:16;;;;;;;2.38;0.82;;;;;;;;;;5080099;28;20023;-69
2023/08/26 09:33:41;;;;;;;2.30;0.88;;;;;;;;;;5070598;28;20037;-69
2023/08/26 09:36:06;;;;;;;2.47;0.90;;;;;;;;;;5081767;28;20016;-70
2023/08/26 09:38:47;;;;;;;3.55;0.95;;;;;;;;;;5080892;28;20024;-68
2023/08/26 09:41:19;;;;;;;2.55;0.77;;;;;;;;;;5086100;28;20478;-68
2023/08/26 09:43:44;;;;;;;1.65;0.68;;;;;;;;;;5079019;28;20429;-69
2023/08/26 09:46:15;;;;;;;1.95;0.80;;;;;;;;;;5089521;28;20084;-69
2023/08/26 09:48:40;;;;;;;2.88;1.08;;;;;;;;;;5084929;28;20043;-69
2023/08/26 09:51:08;;;;;;;2.27;0.73;;;;;;;;;;5085554;28;20024;-70
2023/08/26 09:53:33;;;;;;;5.38;1.17;;;;;;;;;;5076391;28;20349;-69
2023/08/26 09:55:58;;;;;;;2.17;0.73;;;;;;;;;;5079075;28;20981;-69
2023/08/26 09:58:24;;;;;;;3.10;0.73;;;;;;;;;;5076693;28;20864;-70
2023/08/26 10:00:50;;;;;;;2.13;0.80;;;;;;;;;;5042558;28;20020;-69
2023/08/26 10:03:18;;;;;;;2.95;1.05;;;;;;;;;;5037684;28;20028;-68
2023/08/26 10:05:45;;;;;;;1.67;0.70;;;;;;;;;;5045941;28;20089;-70
2023/08/26 10:08:10;;;;;;;2.58;0.82;;;;;;;;;;5040106;28;20078;-71
2023/08/26 10:10:35;;;;;;;6.35;0.80;;;;;;;;;;5045228;28;20851;-70
2023/08/26 10:13:04;;;;;;;1.00;0.50;;;;;;;;;;5033121;28;20024;-71
2023/08/26 10:15:33;;;;;;;3.45;0.90;;;;;;;;;;5031398;28;20044;-70
2023/08/26 10:18:01;;;;;;;2.58;1.00;;;;;;;;;;5048498;28;20036;-70
2023/08/26 10:20:26;;;;;;;2.10;0.88;;;;;;;;;;5077185;28;20100;-70
2023/08/26 10:22:51;;;;;;;2.75;1.08;;;;;;;;;;5078316;28;20146;-70
2023/08/26 10:25:17;;;;;;;2.58;0.85;;;;;;;;;;5075080;28;20016;-70
2023/08/26 10:27:43;;;;;;;2.85;0.80;;;;;;;;;;5074751;28;20480;-70
2023/08/26 10:30:08;;;;;;;3.20;0.90;;;;;;;;;;5081779;28;20051;-71
2023/08/26 10:32:41;;;;;;;3.53;0.77;;;;;;;;;;5075964;28;20506;-70
2023/08/26 10:35:11;;;;;;;2.40;0.90;;;;;;;;;;5077826;28;20024;-77
2023/08/26 10:37:36;;;;;;;2.20;0.63;;;;;;;;;;5045697;28;20020;-71
2023/08/26 10:40:08;;;;;;;2.83;1.02;;;;;;;;;;5064314;28;20012;-71
2023/08/26 10:42:34;;;;;;;2.13;0.75;;;;;;;;;;5077438;28;20028;-71
2023/08/26 10:44:59;;;;;;;3.88;1.00;;;;;;;;;;5081091;28;20386;-71
2023/08/26 10:47:37;;;;;;;4.00;1.00;;;;;;;;;;5077749;28;20020;-70
2023/08/26 10:50:23;;;;;;;3.42;0.90;;;;;;;;;;5053000;28;20363;-72
2023/08/26 10:52:53;;;;;;;2.28;0.90;;;;;;;;;;5076027;28;20093;-70
2023/08/26 10:55:36;;;;;;;1.83;0.80;;;;;;;;;;5075402;28;20047;-70
2023/08/26 10:58:14;;;;;;;5.95;0.98;;;;;;;;;;5081753;28;20032;-71
2023/08/26 11:00:40;;;;;;;3.10;0.88;;;;;;;;;;5079491;28;20388;-70
2023/08/26 11:03:08;;;;;;;2.95;1.15;;;;;;;;;;5050683;28;20021;-70
2023/08/26 11:05:34;;;;;;;3.67;0.80;;;;;;;;;;5057208;28;20026;-69
2023/08/26 11:08:00;;;;;;;4.07;1.00;;;;;;;;;;5077797;28;20107;-70
2023/08/26 11:10:27;;;;;;;2.00;0.88;;;;;;;;;;5082484;28;20648;-70
2023/08/26 11:12:52;;;;;;;2.97;0.85;;;;;;;;;;5084374;28;20063;-70
2023/08/26 11:15:18;;;;;;;2.88;1.02;;;;;;;;;;5072964;28;20028;-70
2023/08/26 11:17:43;;;;;;;3.20;0.93;;;;;;;;;;5076483;28;20467;-71
2023/08/26 11:20:09;;;;;;;3.58;0.98;;;;;;;;;;5073832;28;20527;-71
2023/08/26 11:22:34;;;;;;;2.58;0.98;;;;;;;;;;5072747;28;20024;-70
2023/08/26 11:24:59;;;;;;;2.78;1.08;;;;;;;;;;5077941;28;20110;-70
2023/08/26 11:27:24;;;;;;;3.10;0.80;;;;;;;;;;5065465;28;20032;-69
2023/08/26 11:29:50;;;;;;;6.83;1.10;;;;;;;;;;5072392;28;20093;-70
2023/08/26 11:32:15;;;;;;;3.22;1.00;;;;;;;;;;5032701;28;21245;-70
2023/08/26 11:34:41;;;;;;;2.23;0.90;;;;;;;;;;5032217;28;20032;-69
2023/08/26 11:37:06;;;;;;;1.95;0.82;;;;;;;;;;5017669;28;21078;-70
2023/08/26 11:39:34;;;;;;;2.90;0.77;;;;;;;;;;5044229;28;20028;-70
2023/08/26 11:42:00;;;;;;;2.70;0.90;;;;;;;;;;5079398;28;20115;-70
2023/08/26 11:44:26;;;;;;;1.67;0.70;;;;;;;;;;5074460;28;20103;-70
2023/08/26 11:46:53;;;;;;;1.77;0.70;;;;;;;;;;5077164;28;20039;-70
2023/08/26 11:49:19;;;;;;;5.60;0.80;;;;;;;;;;5064705;28;20048;-70
2023/08/26 11:51:45;;;;;;;1.67;0.70;;;;;;;;;;5051759;28;20032;-69
2023/08/26 11:54:22;;;;;;;3.13;0.80;;;;;;;;;;5040609;28;20085;-70
2023/08/26 11:56:48;;;;;;;4.38;0.93;;;;;;;;;;5038011;28;20028;-70
2023/08/26 11:59:19;;;;;;;3.10;1.10;;;;;;;;;;5040716;28;20354;-71
2023/08/26 12:01:45;;;;;;;3.15;0.93;;;;;;;;;;5031039;28;20131;-71
2023/08/26 12:04:13;;;;;;;5.35;1.00;;;;;;;;;;5033896;28;20026;-71
2023/08/26 12:06:39;;;;;;;2.10;0.70;;;;;;;;;;5044880;28;20032;-70
2023/08/26 12:09:04;;;;;;;3.75;0.88;;;;;;;;;;5037308;28;20020;-70
2023/08/26 12:11:34;;;;;;;2.53;0.87;;;;;;;;;;5032558;28;20020;-71
2023/08/26 12:14:00;;;;;;;1.98;0.77;;;;;;;;;;5030347;28;20333;-71
2023/08/26 12:16:25;;;;;;;2.47;0.90;;;;;;;;;;5022772;28;20898;-68
2023/08/26 12:18:53;;;;;;;1.50;0.68;;;;;;;;;;5036886;28;20267;-70
2023/08/26 12:21:18;;;;;;;2.60;1.02;;;;;;;;;;5051394;28;20032;-70
2023/08/26 12:23:44;;;;;;;1.75;0.65;;;;;;;;;;5078254;28;20489;-71
2023/08/26 12:26:10;;;;;;;2.38;0.60;;;;;;;;;;5091435;28;20024;-71
2023/08/26 12:28:39;;;;;;;2.78;0.60;;;;;;;;;;5085141;28;20016;-71
2023/08/26 12:31:04;;;;;;;1.85;0.60;;;;;;;;;;5061604;28;20055;-70
2023/08/26 12:33:29;;;;;;;1.33;0.40;;;;;;;;;;5078133;28;20468;-70
2023/08/26 12:35:55;;;;;;;2.05;0.88;;;;;;;;;;5083634;28;20340;-69
2023/08/26 12:38:20;;;;;;;1.45;0.52;;;;;;;;;;5078135;28;20020;-70
2023/08/26 12:40:47;;;;;;;1.98;0.70;;;;;;;;;;5080884;28;20467;-70
2023/08/26 12:43:14;;;;;;;1.80;0.88;;;;;;;;;;5077720;28;20364;-70
2023/08/26 12:45:39;;;;;;;1.92;0.73;;;;;;;;;;5085262;28;20097;-71
2023/08/26 12:48:05;;;;;;;2.33;0.85;;;;;;;;;;5072889;28;20028;-70
2023/08/26 12:50:31;;;;;;;1.23;0.55;;;;;;;;;;5082267;28;20440;-70
2023/08/26 12:52:56;;;;;;;3.45;0.98;;;;;;;;;;5077736;28;20518;-71
2023/08/26 12:55:22;;;;;;;2.60;0.60;;;;;;;;;;5066761;28;20103;-76
2023/08/26 12:57:47;;;;;;;2.45;0.73;;;;;;;;;;5073528;28;20710;-70
2023/08/26 13:00:13;;;;;;;2.17;0.60;;;;;;;;;;5084514;28;20024;-71
2023/08/26 13:02:38;;;;;;;1.75;0.50;;;;;;;;;;5088247;28;20111;-70
2023/08/26 13:05:07;;;;;;;2.03;0.93;;;;;;;;;;5082904;28;20021;-70
2023/08/26 13:07:33;;;;;;;3.97;0.80;;;;;;;;;;5073612;28;20029;-70
2023/08/26 13:09:58;;;;;;;1.80;0.57;;;;;;;;;;5079873;28;20031;-70
2023/08/26 13:12:23;;;;;;;2.97;0.90;;;;;;;;;;5069041;28;20039;-71
2023/08/26 13:14:49;;;;;;;1.63;0.80;;;;;;;;;;5063719;28;21111;-69
2023/08/26 13:17:14;;;;;;;1.43;0.60;;;;;;;;;;5029301;28;20867;-68
2023/08/26 13:19:39;;;;;;;1.07;0.40;;;;;;;;;;5037879;28;20441;-71
2023/08/26 13:22:04;;;;;;;2.47;0.70;;;;;;;;;;5038062;28;20401;-68
2023/08/26 13:24:30;;;;;;;1.63;0.70;;;;;;;;;;5039613;28;20313;-68
2023/08/26 13:26:55;;;;;;;1.93;0.63;;;;;;;;;;5031868;28;20034;-73
2023/08/26 13:29:21;;;;;;;2.10;0.80;;;;;;;;;;5031650;28;20290;-70
2023/08/26 13:31:46;;;;;;;3.70;1.05;;;;;;;;;;5038683;28;20300;-71
2023/08/26 13:34:11;;;;;;;2.17;0.73;;;;;;;;;;5040250;28;20025;-69
2023/08/26 13:36:37;;;;;;;2.60;0.87;;;;;;;;;;5054617;28;20270;-69
2023/08/26 13:39:03;;;;;;;1.70;0.73;;;;;;;;;;5075390;28;20282;-70
2023/08/26 13:41:29;;;;;;;2.17;0.75;;;;;;;;;;5092629;28;20023;-68
2023/08/26 13:43:54;;;;;;;3.92;0.88;;;;;;;;;;5078893;28;20016;-68
2023/08/26 13:46:19;;;;;;;1.50;0.70;;;;;;;;;;5080828;28;20030;-68
2023/08/26 13:48:44;;;;;;;3.80;1.15;;;;;;;;;;5091609;28;20838;-68
2023/08/26 13:51:10;;;;;;;2.30;1.00;;;;;;;;;;5089592;28;20467;-72
2023/08/26 13:53:35;;;;;;;1.73;0.67;;;;;;;;;;5091591;28;20332;-70
2023/08/26 13:56:00;;;;;;;7.10;1.00;;;;;;;;;;5094125;28;20305;-70
2023/08/26 13:58:25;;;;;;;1.27;0.60;;;;;;;;;;5090624;28;20525;-67
2023/08/26 14:00:55;;;;;;;1.95;0.80;;;;;;;;;;5092314;28;20023;-67
2023/08/26 14:03:20;;;;;;;2.72;0.65;;;;;;;;;;5090328;28;20467;-65
2023/08/26 14:05:46;;;;;;;1.70;0.65;;;;;;;;;;5093530;28;20020;-66
2023/08/26 14:08:12;;;;;;;1.23;0.43;;;;;;;;;;5083597;28;20345;-66
2023/08/26 14:10:37;;;;;;;2.97;0.80;;;;;;;;;;5088603;28;20542;-67
2023/08/26 14:13:02;;;;;;;2.10;0.80;;;;;;;;;;5087170;28;20107;-66
2023/08/26 14:15:27;;;;;;;2.10;0.70;;;;;;;;;;5090398;28;20278;-68
2023/08/26 14:17:53;;;;;;;1.47;0.63;;;;;;;;;;5085312;28;20024;-66
2023/08/26 14:20:18;;;;;;;2.25;0.88;;;;;;;;;;5074069;28;20275;-66
2023/08/26 14:22:43;;;;;;;1.63;0.70;;;;;;;;;;5075113;28;20021;-68
2023/08/26 14:25:09;;;;;;;1.43;0.63;;;;;;;;;;5092915;28;20274;-67
2023/08/26 14:27:35;;;;;;;1.38;0.57;;;;;;;;;;5078478;28;20266;-67
2023/08/26 14:30:00;;;;;;;1.52;0.60;;;;;;;;;;5074994;28;20032;-69
2023/08/26 14:32:25;;;;;;;2.13;0.60;;;;;;;;;;5075176;28;20024;-69
2023/08/26 14:34:50;;;;;;;1.60;0.60;;;;;;;;;;5076451;28;20287;-68